Surface/Precipitation History
04/23/2015 19:56  to  4/24/2015 19:56
Change End Date:
Date/Time
(MDT)
Sf
Temp Chem Water Layer Surface Precipitation
Sf Sub Frz Factor Pct Depth IcePct Cond Salin Type Intens Accum Rate
04/24/2015 19:55 Wet 34.3F 54F 3F 50 50% 0.00 in 0% 101 mhos 15000 Yes - - -
04/24/2015 19:47 Wet 34.9F 54F 3F 30 50% 0.00 in 0% 121 mhos 15000 Yes - - -
04/24/2015 19:37 Other - 54F - - - - - - - Yes - - -
04/24/2015 19:26 Wet 37.4F 54F 3F 60 50% 0.00 in 0% 297 mhos 15000 Yes - - -
04/24/2015 19:21 Wet 37.4F 54F 3F 35 50% 0.00 in 0% 298 mhos 15000 Yes - - -
04/24/2015 19:11 Wet 37.4F 54F 3F 95 50% 0.00 in 0% 493 mhos 15000 None None - -
04/24/2015 19:01 Wet 40.5F 54F 3F 90 50% 0.00 in 0% 854 mhos 15000 None None - -
04/24/2015 18:55 Wet 42.1F 54F 3F 95 50% 0.00 in 0% 854 mhos 15000 None None - -
04/24/2015 18:51 Wet 43.7F 54F 3F 90 50% 0.00 in 0% 746 mhos 15000 Yes - - -
04/24/2015 18:25 Dry 49.3F 54F - - - - - 5 mhos 407 None None - -
04/24/2015 18:23 Dry 49.8F 54F - - - - - 5 mhos 440 None None - -
04/24/2015 18:13 Dry 51.1F 54F - - - - - 7 mhos 575 None None - -
04/24/2015 18:10 Dry 51.3F 54F - - - - - 8 mhos 610 None None - -
04/24/2015 18:02 Dry 52.7F 53F - - - - - 11 mhos 914 None None - -
04/24/2015 17:55 Dry 52.9F 53F - - - - - 11 mhos 896 None None - -
Date/Time
(MDT)
Sf
Temp Chem Water Layer Surface Precipitation
Sf Sub Frz Factor Pct Depth IcePct Cond Salin Type Intens Accum Rate
04/24/2015 17:52 Dry 53.1F 53F - - - - - 12 mhos 965 None None - -
04/24/2015 17:42 Dry 53.6F 53F - - - - - 14 mhos 1124 None None - -
04/24/2015 17:40 Dry 53.8F 53F - - - - - 15 mhos 1200 None None - -
04/24/2015 17:32 Dry 54.5F 53F - - - - - 18 mhos 1405 None None - -
04/24/2015 17:25 Dry 55.2F 53F - - - - - 17 mhos 1324 None None - -
04/24/2015 17:22 Dry 55.4F 53F - - - - - 17 mhos 1334 None None - -
04/24/2015 17:12 Other - 53F - - - - - - - Yes - - -
04/24/2015 16:55 Dry 58.3F 53F - - - - - 26 mhos 2023 None None - -
04/24/2015 16:52 Dry 58.6F 53F - - - - - 26 mhos 2048 None None - -
04/24/2015 16:42 Dry 59.7F 53F - - - - - 27 mhos 2086 None None - -
04/24/2015 16:40 Dry 60.3F 53F - - - - - 28 mhos 2162 None None - -
04/24/2015 16:32 Dry 62.1F 53F - - - - - 28 mhos 2143 None None - -
04/24/2015 16:25 Dry 63.3F 53F - - - - - 27 mhos 2050 None None - -
04/24/2015 16:22 Dry 60.3F 53F - - - - - 26 mhos 2034 None None - -
04/24/2015 16:12 Dry 59.9F 53F - - - - - 24 mhos 1830 None None - -
Date/Time
(MDT)
Sf
Temp Chem Water Layer Surface Precipitation
Sf Sub Frz Factor Pct Depth IcePct Cond Salin Type Intens Accum Rate
04/24/2015 16:10 Dry 60.1F 53F - - - - - 24 mhos 1852 None None - -
04/24/2015 16:02 Dry 61.0F 53F - - - - - 24 mhos 1853 None None - -
04/24/2015 15:55 Dry 61.0F 53F - - - - - 26 mhos 1987 None None - -
04/24/2015 15:52 Dry 61.2F 53F - - - - - 27 mhos 2034 None None - -
04/24/2015 15:42 Dry 61.5F 53F - - - - - 27 mhos 2038 None None - -
04/24/2015 15:40 Dry 61.5F 53F - - - - - 27 mhos 2069 None None - -
04/24/2015 15:32 Dry 61.5F 53F - - - - - 27 mhos 2048 None None - -
04/24/2015 15:25 Dry 61.5F 53F - - - - - 28 mhos 2135 None None - -
04/24/2015 15:22 Dry 62.2F 53F - - - - - 29 mhos 2176 None None - -
04/24/2015 15:12 Dry 61.7F 53F - - - - - 30 mhos 2278 None None - -
04/24/2015 15:10 Dry 61.7F 53F - - - - - 30 mhos 2291 None None - -
04/24/2015 15:02 Dry 62.4F 53F - - - - - 31 mhos 2367 None None - -
04/24/2015 14:55 Dry 62.6F 52F - - - - - 29 mhos 2217 None None - -
04/24/2015 14:52 Dry 62.8F 52F - - - - - 33 mhos 2478 None None - -
04/24/2015 14:42 Dry 64.0F 52F - - - - - 33 mhos 2525 None None - -
Date/Time
(MDT)
Sf
Temp Chem Water Layer Surface Precipitation
Sf Sub Frz Factor Pct Depth IcePct Cond Salin Type Intens Accum Rate
04/24/2015 14:31 Dry 65.7F 52F - - - - - 33 mhos 2485 None None - -
04/24/2015 14:25 Dry 65.5F 52F - - - - - 33 mhos 2488 None None - -
04/24/2015 14:21 Dry 66.2F 52F - - - - - 34 mhos 2484 None None - -
04/24/2015 14:11 Dry 67.1F 52F - - - - - 34 mhos 2507 None None - -
04/24/2015 14:10 Dry 67.3F 52F - - - - - 34 mhos 2485 None None - -
04/24/2015 14:01 Dry 69.1F 52F - - - - - 34 mhos 2473 None None - -
04/24/2015 13:55 Dry 70.2F 52F - - - - - 34 mhos 2444 None None - -
04/24/2015 13:51 Dry 68.9F 52F - - - - - 35 mhos 2491 None None - -
04/24/2015 13:41 Dry 65.7F 52F - - - - - 34 mhos 2520 None None - -
04/24/2015 13:40 Dry 65.7F 52F - - - - - 34 mhos 2537 None None - -
04/24/2015 13:31 Dry 65.3F 52F - - - - - 34 mhos 2532 None None - -
04/24/2015 13:25 Dry 65.3F 52F - - - - - 33 mhos 2480 None None - -
04/24/2015 13:21 Dry 64.8F 52F - - - - - 33 mhos 2492 None None - -
04/24/2015 13:11 Dry 64.8F 52F - - - - - 34 mhos 2526 None None - -
04/24/2015 13:10 Dry 64.9F 52F - - - - - 34 mhos 2523 None None - -
Date/Time
(MDT)
Sf
Temp Chem Water Layer Surface Precipitation
Sf Sub Frz Factor Pct Depth IcePct Cond Salin Type Intens Accum Rate
04/24/2015 13:01 Dry 65.7F 52F - - - - - 34 mhos 2484 None None - -
04/24/2015 12:55 Dry 66.4F 52F - - - - - 34 mhos 2487 None None - -
04/24/2015 12:51 Dry 66.7F 52F - - - - - 34 mhos 2463 None None - -
04/24/2015 12:41 Dry 67.5F 52F - - - - - 34 mhos 2444 None None - -
04/24/2015 12:40 Dry 67.5F 52F - - - - - 33 mhos 2414 None None - -
04/24/2015 12:31 Dry 67.1F 52F - - - - - 33 mhos 2436 None None - -
04/24/2015 12:26 Dry 67.1F 52F - - - - - 32 mhos 2360 None None - -
04/24/2015 12:21 Dry 68.0F 52F - - - - - 32 mhos 2337 None None - -
04/24/2015 12:11 Dry 68.0F 52F - - - - - 31 mhos 2238 None None - -
04/24/2015 12:10 Dry 68.0F 52F - - - - - 31 mhos 2224 None None - -
04/24/2015 12:01 Dry 68.5F 52F - - - - - 31 mhos 2252 None None - -
04/24/2015 11:55 Dry 69.6F 52F - - - - - 31 mhos 2203 None None - -
04/24/2015 11:51 Dry 69.8F 52F - - - - - 31 mhos 2226 None None - -
04/24/2015 11:41 Dry 70.9F 52F - - - - - 31 mhos 2174 None None - -
04/24/2015 11:40 Dry 70.2F 52F - - - - - 31 mhos 2149 None None - -
Date/Time
(MDT)
Sf
Temp Chem Water Layer Surface Precipitation
Sf Sub Frz Factor Pct Depth IcePct Cond Salin Type Intens Accum Rate
04/24/2015 11:31 Dry 69.8F 52F - - - - - 30 mhos 2108 None None - -
04/24/2015 11:25 Dry 67.8F 52F - - - - - 29 mhos 2080 None None - -
04/24/2015 11:21 Dry 66.7F 52F - - - - - 28 mhos 2046 None None - -
04/24/2015 11:11 Dry 64.6F 52F - - - - - 25 mhos 1841 None None - -
04/24/2015 11:10 Dry 64.6F 52F - - - - - 25 mhos 1833 None None - -
04/24/2015 11:01 Dry 62.6F 52F - - - - - 22 mhos 1640 None None - -
04/24/2015 10:55 Dry 61.5F 52F - - - - - 20 mhos 1497 None None - -
04/24/2015 10:51 Dry 61.0F 52F - - - - - 17 mhos 1272 None None - -
04/24/2015 10:41 Dry 54.3F 52F - - - - - 11 mhos 891 None None - -
04/24/2015 10:40 Dry 54.0F 52F - - - - - 12 mhos 937 None None - -
04/24/2015 10:31 Dry 55.0F 53F - - - - - 14 mhos 1065 None None - -
04/24/2015 10:26 Dry 55.8F 53F - - - - - 13 mhos 974 None None - -
04/24/2015 10:21 Dry 56.1F 53F - - - - - 12 mhos 964 None None - -
04/24/2015 10:11 Dry 53.8F 53F - - - - - 9 mhos 674 None None - -
04/24/2015 10:10 Dry 53.2F 53F - - - - - 9 mhos 686 None None - -
Date/Time
(MDT)
Sf
Temp Chem Water Layer Surface Precipitation
Sf Sub Frz Factor Pct Depth IcePct Cond Salin Type Intens Accum Rate
04/24/2015 10:00 Dry 51.8F 53F - - - - - 7 mhos 567 None None - -
04/24/2015 09:55 Dry 51.1F 53F - - - - - 7 mhos 578 None None - -
04/24/2015 09:50 Dry 50.5F 53F - - - - - 7 mhos 537 None None - -
04/24/2015 09:40 Dry 53.1F 53F - - - - - 7 mhos 578 None None - -
04/24/2015 09:40 Dry 53.1F 53F - - - - - 7 mhos 578 None None - -
04/24/2015 09:30 Dry 50.9F 53F - - - - - 5 mhos 417 None None - -
04/24/2015 09:25 Dry 49.8F 53F - - - - - 4 mhos 364 None None - -
04/24/2015 09:20 Dry 48.7F 53F - - - - - 4 mhos 327 None None - -
04/24/2015 09:10 Dry 46.8F 53F - - - - - 4 mhos 313 None None - -
04/24/2015 09:10 Dry 46.8F 53F - - - - - 4 mhos 313 None None - -
04/24/2015 09:00 Dry 46.2F 53F - - - - - 4 mhos 317 None None - -
04/24/2015 08:55 Dry 46.2F 53F - - - - - 4 mhos 325 None None - -
04/24/2015 08:50 Dry 46.9F 53F - - - - - 4 mhos 327 None None - -
04/24/2015 08:40 Dry 46.2F 53F - - - - - 3 mhos 256 None None - -
04/24/2015 08:40 Dry 46.0F 53F - - - - - 3 mhos 249 None None - -
Date/Time
(MDT)
Sf
Temp Chem Water Layer Surface Precipitation
Sf Sub Frz Factor Pct Depth IcePct Cond Salin Type Intens Accum Rate
04/24/2015 08:30 Dry 43.5F 53F - - - - - 1 mhos 62 None None - -
04/24/2015 08:25 Dry 42.1F 53F - - - - - 1 mhos 60 None None - -
04/24/2015 08:20 Trace Moisture 41.0F 54F - 5 - - - 1 mhos 70 None None - -
04/24/2015 08:10 Trace Moisture 39.4F 54F - 5 - - - 1 mhos 66 None None - -
04/24/2015 08:10 Trace Moisture 39.4F 54F - 5 - - - 1 mhos 66 None None - -
04/24/2015 08:00 Trace Moisture 38.5F 54F - 25 - - - 1 mhos 72 None None - -
04/24/2015 07:55 Trace Moisture 38.3F 54F - 30 - - - 1 mhos 72 None None - -
04/24/2015 07:50 Trace Moisture 38.1F 54F - 35 - - - 1 mhos 73 None None - -
04/24/2015 07:40 Trace Moisture 37.2F 54F - 40 - - - 1 mhos 73 None None - -
04/24/2015 07:40 Trace Moisture 37.2F 54F - 40 - - - 1 mhos 73 None None - -
04/24/2015 07:30 Trace Moisture 35.8F 54F - 25 - - - 1 mhos 74 None None - -
04/24/2015 07:25 Trace Moisture 34.9F 54F - 15 - - - 1 mhos 74 None None - -
04/24/2015 07:20 Trace Moisture 34.0F 54F - 10 - - - 1 mhos 75 None None - -
04/24/2015 07:10 Trace Moisture 33.4F 54F - 20 - - - 1 mhos 76 None None - -
04/24/2015 07:10 Trace Moisture 33.4F 54F - 20 - - - 1 mhos 76 None None - -
Date/Time
(MDT)
Sf
Temp Chem Water Layer Surface Precipitation
Sf Sub Frz Factor Pct Depth IcePct Cond Salin Type Intens Accum Rate
04/24/2015 07:00 Trace Moisture 33.1F 54F - 20 - - - 3 mhos 291 None None - -
04/24/2015 06:55 Trace Moisture 32.9F 54F - 20 - - - 3 mhos 290 None None - -
04/24/2015 06:50 Trace Moisture 32.9F 55F - 20 - - - 3 mhos 298 None None - -
04/24/2015 06:40 Trace Moisture 33.3F 55F - 35 - - - 3 mhos 308 None None - -
04/24/2015 06:40 Trace Moisture 33.3F 55F - 35 - - - 3 mhos 308 None None - -
04/24/2015 06:30 Trace Moisture 33.6F 55F - 25 - - - 3 mhos 288 None None - -
04/24/2015 06:26 Trace Moisture 33.8F 55F - 25 - - - 3 mhos 290 None None - -
04/24/2015 06:20 Trace Moisture 34.0F 55F - 15 - - - 1 mhos 75 None None - -
04/24/2015 06:10 Trace Moisture 33.8F 55F - 25 - - - 3 mhos 296 None None - -
04/24/2015 06:00 Trace Moisture 33.8F 55F - 30 - - - 3 mhos 317 None None - -
04/24/2015 05:55 Trace Moisture 33.8F 55F - 35 - - - 3 mhos 320 None None - -
04/24/2015 05:50 Trace Moisture 34.0F 55F - 40 - - - 3 mhos 337 None None - -
04/24/2015 05:40 Trace Moisture 33.8F 55F - 40 - - - 4 mhos 359 None None - -
04/24/2015 05:30 Trace Moisture 34.0F 55F - 50 - - - 4 mhos 397 None None - -
04/24/2015 05:26 Trace Moisture 34.2F 55F - 50 - - - 4 mhos 410 None None - -
Date/Time
(MDT)
Sf
Temp Chem Water Layer Surface Precipitation
Sf Sub Frz Factor Pct Depth IcePct Cond Salin Type Intens Accum Rate
04/24/2015 05:20 Trace Moisture 34.3F 55F - 55 - - - 4 mhos 431 None None - -
04/24/2015 05:09 Dry 34.7F 55F - - - - - 5 mhos 476 None None - -
04/24/2015 04:59 Dry 35.2F 55F - - - - - 7 mhos 723 None None - -
04/24/2015 04:55 Dry 35.4F 55F - - - - - 8 mhos 806 None None - -
04/24/2015 04:49 Dry 35.8F 55F - - - - - 8 mhos 789 None None - -
04/24/2015 04:39 Dry 36.0F 56F - - - - - 13 mhos 1238 None None - -
04/24/2015 04:29 Dry 36.9F 56F - - - - - 15 mhos 1441 None None - -
04/24/2015 04:26 Dry 37.0F 56F - - - - - 15 mhos 1479 None None - -
04/24/2015 04:19 Dry 37.4F 56F - - - - - 16 mhos 1589 None None - -
04/24/2015 04:09 Dry 37.6F 56F - - - - - 19 mhos 1833 None None - -
04/24/2015 03:59 Dry 38.1F 56F - - - - - 19 mhos 1901 None None - -
04/24/2015 03:55 Dry 38.5F 56F - - - - - 20 mhos 1950 None None - -
04/24/2015 03:49 Dry 38.5F 56F - - - - - 19 mhos 1862 None None - -
04/24/2015 03:39 Dry 38.7F 56F - - - - - 20 mhos 1986 None None - -
04/24/2015 03:29 Dry 38.7F 56F - - - - - 24 mhos 2347 None None - -
Date/Time
(MDT)
Sf
Temp Chem Water Layer Surface Precipitation
Sf Sub Frz Factor Pct Depth IcePct Cond Salin Type Intens Accum Rate
04/24/2015 03:25 Dry 38.7F 56F - - - - - 24 mhos 2425 None None - -
04/24/2015 03:19 Dry 39.0F 56F - - - - - 26 mhos 2637 None None - -
04/24/2015 03:09 Dry 39.6F 56F - - - - - 28 mhos 2840 None None - -
04/24/2015 02:59 Dry 39.7F 56F - - - - - 30 mhos 2977 None None - -
04/24/2015 02:56 Dry 39.7F 56F - - - - - 30 mhos 3012 None None - -
04/24/2015 02:49 Dry 39.7F 56F - - - - - 30 mhos 3055 None None - -
04/24/2015 02:39 Dry 39.7F 56F - - - - - 31 mhos 3112 None None - -
04/24/2015 02:29 Dry 39.7F 56F - - - - - 31 mhos 3170 None None - -
04/24/2015 02:26 Dry 39.7F 56F - - - - - 31 mhos 3170 None None - -
04/24/2015 02:19 Dry 39.7F 56F - - - - - 32 mhos 3203 None None - -
04/24/2015 02:09 Dry 39.9F 57F - - - - - 33 mhos 3301 None None - -
04/24/2015 01:59 Dry 40.5F 57F - - - - - 33 mhos 3367 None None - -
04/24/2015 01:56 Dry 40.5F 57F - - - - - 33 mhos 3367 None None - -
04/24/2015 01:49 Dry 40.6F 57F - - - - - 34 mhos 3402 None None - -
04/24/2015 01:39 Dry 41.2F 57F - - - - - 34 mhos 3375 None None - -
Date/Time
(MDT)
Sf
Temp Chem Water Layer Surface Precipitation
Sf Sub Frz Factor Pct Depth IcePct Cond Salin Type Intens Accum Rate
04/24/2015 01:29 Dry 42.1F 57F - - - - - 34 mhos 3408 None None - -
04/24/2015 01:26 Dry 42.3F 57F - - - - - 35 mhos 3424 None None - -
04/24/2015 01:19 Dry 42.6F 57F - - - - - 35 mhos 3425 None None - -
04/24/2015 01:09 Dry 43.2F 57F - - - - - 35 mhos 3451 None None - -
04/24/2015 00:59 Dry 43.5F 57F - - - - - 36 mhos 3479 None None - -
04/24/2015 00:57 Dry 43.7F 57F - - - - - 36 mhos 3496 None None - -
04/24/2015 00:49 Dry 44.4F 57F - - - - - 36 mhos 3441 None None - -
04/24/2015 00:39 Dry 45.0F 57F - - - - - 36 mhos 3419 None None - -
04/24/2015 00:29 Dry 45.1F 57F - - - - - 36 mhos 3404 None None - -
04/24/2015 00:25 Dry 45.3F 57F - - - - - 36 mhos 3397 None None - -
04/24/2015 00:19 Dry 45.5F 57F - - - - - 36 mhos 3390 None None - -
04/24/2015 00:08 Dry 45.7F 57F - - - - - 35 mhos 3335 None None - -
04/24/2015 00:01 Dry 46.0F 57F - - - - - 35 mhos 3297 None None - -
04/23/2015 23:58 Dry 46.0F 57F - - - - - 35 mhos 3297 None None - -
04/23/2015 23:48 Dry 46.2F 57F - - - - - 35 mhos 3314 None None - -
Date/Time
(MDT)
Sf
Temp Chem Water Layer Surface Precipitation
Sf Sub Frz Factor Pct Depth IcePct Cond Salin Type Intens Accum Rate
04/23/2015 23:38 Dry 46.4F 57F - - - - - 35 mhos 3276 - - - -
04/23/2015 23:28 Dry 46.2F 57F - - - - - 34 mhos 3222 - - - -
04/23/2015 23:26 Dry 46.0F 57F - - - - - 34 mhos 3229 None None - -
04/23/2015 23:18 Dry 45.9F 57F - - - - - 34 mhos 3214 None None - -
04/23/2015 23:08 Dry 46.0F 57F - - - - - 34 mhos 3207 None None - -
04/23/2015 22:58 Dry 46.2F 57F - - - - - 34 mhos 3222 None None - -
04/23/2015 22:56 Dry 46.2F 57F - - - - - 34 mhos 3194 None None - -
04/23/2015 22:48 Dry 46.4F 57F - - - - - 34 mhos 3209 None None - -
04/23/2015 22:38 Dry 46.9F 57F - - - - - 34 mhos 3124 None None - -
04/23/2015 22:28 Dry 47.5F 57F - - - - - 34 mhos 3148 None None - -
04/23/2015 22:26 Dry 47.5F 57F - - - - - 34 mhos 3141 None None - -
04/23/2015 22:18 Dry 47.8F 57F - - - - - 34 mhos 3129 None None - -
04/23/2015 22:08 Dry 48.0F 57F - - - - - 34 mhos 3122 None None - -
04/23/2015 21:58 Dry 48.7F 57F - - - - - 34 mhos 3097 None None - -
04/23/2015 21:55 Dry 48.7F 57F - - - - - 34 mhos 3091 None None - -
Date/Time
(MDT)
Sf
Temp Chem Water Layer Surface Precipitation
Sf Sub Frz Factor Pct Depth IcePct Cond Salin Type Intens Accum Rate
04/23/2015 21:48 Dry 49.3F 57F - - - - - 34 mhos 3093 None None - -
04/23/2015 21:38 Dry 50.0F 57F - - - - - 35 mhos 3090 None None - -
04/23/2015 21:28 Dry 50.5F 57F - - - - - 35 mhos 3109 None None - -
04/23/2015 21:26 Dry 50.9F 57F - - - - - 35 mhos 3096 None None - -
04/23/2015 21:18 Dry 51.4F 57F - - - - - 36 mhos 3116 None None - -
04/23/2015 21:08 Dry 52.5F 57F - - - - - 36 mhos 3118 None None - -
04/23/2015 20:58 Dry 53.8F 57F - - - - - 36 mhos 3093 None None - -
04/23/2015 20:55 Dry 54.3F 57F - - - - - 36 mhos 3098 None None - -
04/23/2015 20:48 Dry 55.4F 57F - - - - - 37 mhos 3080 None None - -
04/23/2015 20:40 Dry 56.1F 57F - - - - - 37 mhos 3080 None None - -
04/23/2015 20:38 Dry 56.3F 57F - - - - - 37 mhos 3074 None None - -
04/23/2015 20:28 Dry 56.8F 57F - - - - - 37 mhos 3074 None None - -
04/23/2015 20:25 Dry 57.2F 57F - - - - - 37 mhos 3063 None None - -
04/23/2015 20:18 Dry 58.1F 57F - - - - - 37 mhos 3030 None None - -
04/23/2015 20:10 Dry 59.4F 56F - - - - - 37 mhos 2988 None None - -
Date/Time
(MDT)
Sf
Temp Chem Water Layer Surface Precipitation
Sf Sub Frz Factor Pct Depth IcePct Cond Salin Type Intens Accum Rate
04/23/2015 20:08 Dry 59.5F 56F - - - - - 37 mhos 2982 None None - -
04/23/2015 19:58 Dry 60.3F 56F - - - - - 37 mhos 2957 None None - -
Change End Date:
Copyright © 1998-2005 Surface Systems, Inc.
All Rights Reserved
Send comments about the data to:
SCAN Web ® is a registered trademark of Surface Systems, Inc.
SCAN Web Version 5.6